sensor_id;sensor_type;location;lat;lon;timestamp;P1;durP1;ratioP1;P2;durP2;ratioP2
11187;SDS011;5650;52.700;7.306;2023-11-18T00:01:59;71.95;;;33.90;;
11187;SDS011;5650;52.700;7.306;2023-11-18T00:04:35;70.60;;;37.25;;
11187;SDS011;5650;52.700;7.306;2023-11-18T00:07:02;51.60;;;32.20;;
11187;SDS011;5650;52.700;7.306;2023-11-18T00:09:30;52.45;;;28.63;;
11187;SDS011;5650;52.700;7.306;2023-11-18T00:11:57;39.63;;;28.02;;
11187;SDS011;5650;52.700;7.306;2023-11-18T00:14:24;40.08;;;27.92;;
11187;SDS011;5650;52.700;7.306;2023-11-18T00:23:00;37.75;;;28.52;;
11187;SDS011;5650;52.700;7.306;2023-11-18T00:25:29;41.38;;;29.58;;
11187;SDS011;5650;52.700;7.306;2023-11-18T00:28:05;39.38;;;28.75;;
11187;SDS011;5650;52.700;7.306;2023-11-18T00:30:38;38.80;;;27.48;;
11187;SDS011;5650;52.700;7.306;2023-11-18T00:33:05;43.15;;;30.65;;
11187;SDS011;5650;52.700;7.306;2023-11-18T00:35:34;40.47;;;29.73;;
11187;SDS011;5650;52.700;7.306;2023-11-18T00:38:07;41.47;;;29.83;;
11187;SDS011;5650;52.700;7.306;2023-11-18T00:40:35;45.60;;;31.33;;
11187;SDS011;5650;52.700;7.306;2023-11-18T00:43:02;46.65;;;33.35;;
11187;SDS011;5650;52.700;7.306;2023-11-18T00:45:30;37.63;;;29.52;;
11187;SDS011;5650;52.700;7.306;2023-11-18T00:47:57;43.22;;;29.73;;
11187;SDS011;5650;52.700;7.306;2023-11-18T00:50:24;38.08;;;27.63;;
11187;SDS011;5650;52.700;7.306;2023-11-18T00:52:53;44.35;;;29.80;;
11187;SDS011;5650;52.700;7.306;2023-11-18T00:55:23;51.75;;;32.95;;
11187;SDS011;5650;52.700;7.306;2023-11-18T00:57:58;60.67;;;33.65;;
11187;SDS011;5650;52.700;7.306;2023-11-18T01:00:25;76.70;;;39.60;;
11187;SDS011;5650;52.700;7.306;2023-11-18T01:02:52;81.18;;;41.08;;
11187;SDS011;5650;52.700;7.306;2023-11-18T01:05:21;65.57;;;37.13;;
11187;SDS011;5650;52.700;7.306;2023-11-18T01:07:56;59.03;;;33.92;;
11187;SDS011;5650;52.700;7.306;2023-11-18T01:10:23;51.10;;;29.52;;
11187;SDS011;5650;52.700;7.306;2023-11-18T01:12:58;45.28;;;29.80;;
11187;SDS011;5650;52.700;7.306;2023-11-18T01:15:28;45.58;;;28.92;;
11187;SDS011;5650;52.700;7.306;2023-11-18T01:17:57;45.85;;;29.48;;
11187;SDS011;5650;52.700;7.306;2023-11-18T01:20:25;55.78;;;31.55;;
11187;SDS011;5650;52.700;7.306;2023-11-18T01:22:52;54.92;;;29.05;;
11187;SDS011;5650;52.700;7.306;2023-11-18T01:25:23;133.30;;;34.05;;
11187;SDS011;5650;52.700;7.306;2023-11-18T01:27:52;161.45;;;33.92;;
11187;SDS011;5650;52.700;7.306;2023-11-18T01:30:22;58.28;;;31.75;;
11187;SDS011;5650;52.700;7.306;2023-11-18T01:32:59;54.83;;;30.65;;
11187;SDS011;5650;52.700;7.306;2023-11-18T01:35:27;65.47;;;31.95;;
11187;SDS011;5650;52.700;7.306;2023-11-18T01:37:54;60.13;;;28.42;;
11187;SDS011;5650;52.700;7.306;2023-11-18T01:40:23;65.50;;;29.02;;
11187;SDS011;5650;52.700;7.306;2023-11-18T01:42:51;57.80;;;26.67;;
11187;SDS011;5650;52.700;7.306;2023-11-18T01:45:18;67.50;;;28.45;;
11187;SDS011;5650;52.700;7.306;2023-11-18T01:47:45;77.35;;;29.52;;
11187;SDS011;5650;52.700;7.306;2023-11-18T01:50:13;48.97;;;29.20;;
11187;SDS011;5650;52.700;7.306;2023-11-18T01:52:42;56.20;;;33.38;;
11187;SDS011;5650;52.700;7.306;2023-11-18T01:55:10;48.90;;;32.10;;
11187;SDS011;5650;52.700;7.306;2023-11-18T01:57:40;45.85;;;29.65;;
11187;SDS011;5650;52.700;7.306;2023-11-18T02:00:09;49.03;;;29.10;;
11187;SDS011;5650;52.700;7.306;2023-11-18T02:02:38;44.85;;;27.30;;
11187;SDS011;5650;52.700;7.306;2023-11-18T02:05:11;46.22;;;26.67;;
11187;SDS011;5650;52.700;7.306;2023-11-18T02:07:38;39.85;;;25.88;;
11187;SDS011;5650;52.700;7.306;2023-11-18T02:10:08;36.08;;;23.45;;
11187;SDS011;5650;52.700;7.306;2023-11-18T02:12:38;35.50;;;24.25;;
11187;SDS011;5650;52.700;7.306;2023-11-18T02:15:12;37.97;;;24.08;;
11187;SDS011;5650;52.700;7.306;2023-11-18T02:17:42;33.28;;;22.48;;
11187;SDS011;5650;52.700;7.306;2023-11-18T02:20:11;34.33;;;22.35;;
11187;SDS011;5650;52.700;7.306;2023-11-18T02:22:41;34.08;;;23.40;;
11187;SDS011;5650;52.700;7.306;2023-11-18T02:25:09;34.90;;;23.25;;
11187;SDS011;5650;52.700;7.306;2023-11-18T02:27:43;35.40;;;23.25;;
11187;SDS011;5650;52.700;7.306;2023-11-18T02:30:10;31.20;;;22.92;;
11187;SDS011;5650;52.700;7.306;2023-11-18T02:32:43;34.85;;;23.95;;
11187;SDS011;5650;52.700;7.306;2023-11-18T02:35:17;29.33;;;21.75;;
11187;SDS011;5650;52.700;7.306;2023-11-18T02:37:51;34.85;;;22.40;;
11187;SDS011;5650;52.700;7.306;2023-11-18T02:40:32;31.55;;;21.25;;
11187;SDS011;5650;52.700;7.306;2023-11-18T02:43:06;30.40;;;20.63;;
11187;SDS011;5650;52.700;7.306;2023-11-18T02:45:35;31.30;;;20.13;;
11187;SDS011;5650;52.700;7.306;2023-11-18T02:48:06;32.40;;;21.70;;
11187;SDS011;5650;52.700;7.306;2023-11-18T02:50:33;35.08;;;21.98;;
11187;SDS011;5650;52.700;7.306;2023-11-18T02:53:01;29.02;;;20.60;;
11187;SDS011;5650;52.700;7.306;2023-11-18T02:55:29;36.10;;;22.17;;
11187;SDS011;5650;52.700;7.306;2023-11-18T02:57:55;31.50;;;21.98;;
11187;SDS011;5650;52.700;7.306;2023-11-18T03:00:27;33.65;;;22.10;;
11187;SDS011;5650;52.700;7.306;2023-11-18T03:02:57;34.95;;;24.73;;
11187;SDS011;5650;52.700;7.306;2023-11-18T03:05:28;41.92;;;24.90;;
11187;SDS011;5650;52.700;7.306;2023-11-18T03:07:55;37.33;;;23.70;;
11187;SDS011;5650;52.700;7.306;2023-11-18T03:10:25;36.28;;;23.75;;
11187;SDS011;5650;52.700;7.306;2023-11-18T03:12:55;41.40;;;24.67;;
11187;SDS011;5650;52.700;7.306;2023-11-18T03:15:27;48.97;;;25.65;;
11187;SDS011;5650;52.700;7.306;2023-11-18T03:17:55;51.22;;;24.85;;
11187;SDS011;5650;52.700;7.306;2023-11-18T03:20:25;42.00;;;25.58;;
11187;SDS011;5650;52.700;7.306;2023-11-18T03:22:54;44.38;;;24.98;;
11187;SDS011;5650;52.700;7.306;2023-11-18T03:25:30;48.55;;;25.80;;
11187;SDS011;5650;52.700;7.306;2023-11-18T03:27:57;36.88;;;23.77;;
11187;SDS011;5650;52.700;7.306;2023-11-18T03:30:24;45.58;;;25.70;;
11187;SDS011;5650;52.700;7.306;2023-11-18T03:33:02;54.95;;;24.95;;
11187;SDS011;5650;52.700;7.306;2023-11-18T03:35:29;48.97;;;25.17;;
11187;SDS011;5650;52.700;7.306;2023-11-18T03:38:02;55.85;;;26.75;;
11187;SDS011;5650;52.700;7.306;2023-11-18T03:40:35;49.60;;;26.02;;
11187;SDS011;5650;52.700;7.306;2023-11-18T03:43:06;46.75;;;25.83;;
11187;SDS011;5650;52.700;7.306;2023-11-18T03:45:34;46.22;;;25.10;;
11187;SDS011;5650;52.700;7.306;2023-11-18T03:48:02;175.88;;;27.35;;
11187;SDS011;5650;52.700;7.306;2023-11-18T03:50:29;73.88;;;24.50;;
11187;SDS011;5650;52.700;7.306;2023-11-18T03:53:02;207.88;;;26.40;;
11187;SDS011;5650;52.700;7.306;2023-11-18T03:58:30;78.05;;;24.60;;
11187;SDS011;5650;52.700;7.306;2023-11-18T04:01:01;96.38;;;24.77;;
11187;SDS011;5650;52.700;7.306;2023-11-18T04:03:28;55.22;;;24.02;;
11187;SDS011;5650;52.700;7.306;2023-11-18T04:05:58;59.50;;;22.88;;
11187;SDS011;5650;52.700;7.306;2023-11-18T04:08:33;87.28;;;23.45;;
11187;SDS011;5650;52.700;7.306;2023-11-18T04:11:00;66.47;;;23.83;;
11187;SDS011;5650;52.700;7.306;2023-11-18T04:13:27;62.15;;;25.27;;
11187;SDS011;5650;52.700;7.306;2023-11-18T04:15:55;72.13;;;24.55;;
11187;SDS011;5650;52.700;7.306;2023-11-18T04:18:26;43.38;;;24.40;;
11187;SDS011;5650;52.700;7.306;2023-11-18T04:20:56;38.45;;;24.00;;
11187;SDS011;5650;52.700;7.306;2023-11-18T04:23:26;48.78;;;25.33;;
11187;SDS011;5650;52.700;7.306;2023-11-18T04:25:55;44.97;;;24.05;;
11187;SDS011;5650;52.700;7.306;2023-11-18T04:28:22;43.45;;;23.95;;
11187;SDS011;5650;52.700;7.306;2023-11-18T04:30:56;44.92;;;24.25;;
11187;SDS011;5650;52.700;7.306;2023-11-18T04:33:23;44.42;;;24.65;;
11187;SDS011;5650;52.700;7.306;2023-11-18T04:36:05;43.10;;;25.70;;
11187;SDS011;5650;52.700;7.306;2023-11-18T04:38:35;44.15;;;24.73;;
11187;SDS011;5650;52.700;7.306;2023-11-18T04:41:02;43.60;;;25.08;;
11187;SDS011;5650;52.700;7.306;2023-11-18T04:43:34;37.75;;;24.27;;
11187;SDS011;5650;52.700;7.306;2023-11-18T04:46:01;40.60;;;24.70;;
11187;SDS011;5650;52.700;7.306;2023-11-18T04:48:30;37.25;;;23.77;;
11187;SDS011;5650;52.700;7.306;2023-11-18T04:50:58;42.30;;;25.38;;
11187;SDS011;5650;52.700;7.306;2023-11-18T04:53:26;37.22;;;24.63;;
11187;SDS011;5650;52.700;7.306;2023-11-18T04:55:55;39.65;;;24.02;;
11187;SDS011;5650;52.700;7.306;2023-11-18T04:58:25;41.90;;;25.00;;
11187;SDS011;5650;52.700;7.306;2023-11-18T05:00:56;44.08;;;24.45;;
11187;SDS011;5650;52.700;7.306;2023-11-18T05:03:26;41.53;;;24.85;;
11187;SDS011;5650;52.700;7.306;2023-11-18T05:05:53;42.33;;;24.48;;
11187;SDS011;5650;52.700;7.306;2023-11-18T05:08:25;40.35;;;24.40;;
11187;SDS011;5650;52.700;7.306;2023-11-18T05:10:59;46.05;;;25.75;;
11187;SDS011;5650;52.700;7.306;2023-11-18T05:13:32;42.38;;;24.17;;
11187;SDS011;5650;52.700;7.306;2023-11-18T05:16:00;44.97;;;24.13;;
11187;SDS011;5650;52.700;7.306;2023-11-18T05:18:28;42.25;;;24.90;;
11187;SDS011;5650;52.700;7.306;2023-11-18T05:21:01;44.22;;;25.73;;
11187;SDS011;5650;52.700;7.306;2023-11-18T05:23:41;42.92;;;24.80;;
11187;SDS011;5650;52.700;7.306;2023-11-18T05:26:08;44.80;;;24.88;;
11187;SDS011;5650;52.700;7.306;2023-11-18T05:28:35;46.17;;;25.70;;
11187;SDS011;5650;52.700;7.306;2023-11-18T05:31:03;44.38;;;25.05;;
11187;SDS011;5650;52.700;7.306;2023-11-18T05:33:31;43.50;;;26.52;;
11187;SDS011;5650;52.700;7.306;2023-11-18T05:36:00;46.20;;;25.52;;
11187;SDS011;5650;52.700;7.306;2023-11-18T05:38:33;45.20;;;25.90;;
11187;SDS011;5650;52.700;7.306;2023-11-18T05:41:02;44.13;;;24.67;;
11187;SDS011;5650;52.700;7.306;2023-11-18T05:43:36;41.85;;;23.63;;
11187;SDS011;5650;52.700;7.306;2023-11-18T05:46:05;43.92;;;24.20;;
11187;SDS011;5650;52.700;7.306;2023-11-18T05:48:45;42.08;;;24.05;;
11187;SDS011;5650;52.700;7.306;2023-11-18T05:51:18;41.25;;;24.00;;
11187;SDS011;5650;52.700;7.306;2023-11-18T05:53:46;43.97;;;24.65;;
11187;SDS011;5650;52.700;7.306;2023-11-18T05:56:26;40.47;;;24.00;;
11187;SDS011;5650;52.700;7.306;2023-11-18T05:59:03;36.97;;;23.35;;
11187;SDS011;5650;52.700;7.306;2023-11-18T06:01:30;41.83;;;24.00;;
11187;SDS011;5650;52.700;7.306;2023-11-18T06:04:09;49.53;;;22.98;;
11187;SDS011;5650;52.700;7.306;2023-11-18T06:06:36;37.67;;;23.30;;
11187;SDS011;5650;52.700;7.306;2023-11-18T06:09:09;52.35;;;23.08;;
11187;SDS011;5650;52.700;7.306;2023-11-18T06:11:47;57.63;;;22.63;;
11187;SDS011;5650;52.700;7.306;2023-11-18T06:14:14;38.88;;;23.38;;
11187;SDS011;5650;52.700;7.306;2023-11-18T06:16:44;43.55;;;23.63;;
11187;SDS011;5650;52.700;7.306;2023-11-18T06:19:13;39.45;;;23.10;;
11187;SDS011;5650;52.700;7.306;2023-11-18T06:21:40;43.10;;;23.38;;
11187;SDS011;5650;52.700;7.306;2023-11-18T06:24:07;39.45;;;21.88;;
11187;SDS011;5650;52.700;7.306;2023-11-18T06:26:47;47.42;;;22.13;;
11187;SDS011;5650;52.700;7.306;2023-11-18T06:29:15;36.05;;;21.90;;
11187;SDS011;5650;52.700;7.306;2023-11-18T06:31:43;51.78;;;23.42;;
11187;SDS011;5650;52.700;7.306;2023-11-18T06:34:10;45.80;;;22.15;;
11187;SDS011;5650;52.700;7.306;2023-11-18T06:36:38;45.40;;;23.08;;
11187;SDS011;5650;52.700;7.306;2023-11-18T06:39:08;49.33;;;23.42;;
11187;SDS011;5650;52.700;7.306;2023-11-18T06:41:38;60.30;;;24.08;;
11187;SDS011;5650;52.700;7.306;2023-11-18T06:44:14;44.25;;;23.02;;
11187;SDS011;5650;52.700;7.306;2023-11-18T06:46:48;44.95;;;23.85;;
11187;SDS011;5650;52.700;7.306;2023-11-18T06:49:16;42.92;;;23.35;;
11187;SDS011;5650;52.700;7.306;2023-11-18T06:51:44;47.33;;;24.60;;
11187;SDS011;5650;52.700;7.306;2023-11-18T06:54:11;42.58;;;23.95;;
11187;SDS011;5650;52.700;7.306;2023-11-18T06:56:39;40.22;;;23.90;;
11187;SDS011;5650;52.700;7.306;2023-11-18T06:59:08;61.53;;;25.25;;
11187;SDS011;5650;52.700;7.306;2023-11-18T07:01:39;51.22;;;24.42;;
11187;SDS011;5650;52.700;7.306;2023-11-18T07:04:07;59.20;;;23.38;;
11187;SDS011;5650;52.700;7.306;2023-11-18T07:06:34;76.18;;;26.05;;
11187;SDS011;5650;52.700;7.306;2023-11-18T07:09:03;64.63;;;23.27;;
11187;SDS011;5650;52.700;7.306;2023-11-18T07:11:42;95.57;;;25.98;;
11187;SDS011;5650;52.700;7.306;2023-11-18T07:14:11;64.57;;;25.05;;
11187;SDS011;5650;52.700;7.306;2023-11-18T07:16:41;62.78;;;25.92;;
11187;SDS011;5650;52.700;7.306;2023-11-18T07:19:12;83.57;;;28.38;;
11187;SDS011;5650;52.700;7.306;2023-11-18T07:21:45;46.33;;;26.95;;
11187;SDS011;5650;52.700;7.306;2023-11-18T07:24:15;65.03;;;26.65;;
11187;SDS011;5650;52.700;7.306;2023-11-18T07:26:42;49.17;;;26.95;;
11187;SDS011;5650;52.700;7.306;2023-11-18T07:29:10;56.85;;;28.48;;
11187;SDS011;5650;52.700;7.306;2023-11-18T07:31:37;61.95;;;28.25;;
11187;SDS011;5650;52.700;7.306;2023-11-18T07:34:06;62.03;;;27.55;;
11187;SDS011;5650;52.700;7.306;2023-11-18T07:36:33;56.15;;;27.60;;
11187;SDS011;5650;52.700;7.306;2023-11-18T07:39:00;47.90;;;28.02;;
11187;SDS011;5650;52.700;7.306;2023-11-18T07:41:31;55.45;;;26.83;;
11187;SDS011;5650;52.700;7.306;2023-11-18T07:44:01;65.15;;;30.38;;
11187;SDS011;5650;52.700;7.306;2023-11-18T07:46:31;52.78;;;29.77;;
11187;SDS011;5650;52.700;7.306;2023-11-18T07:49:03;45.08;;;27.40;;
11187;SDS011;5650;52.700;7.306;2023-11-18T07:51:32;48.70;;;28.55;;
11187;SDS011;5650;52.700;7.306;2023-11-18T07:53:59;54.13;;;28.90;;
11187;SDS011;5650;52.700;7.306;2023-11-18T07:56:31;48.50;;;28.45;;
11187;SDS011;5650;52.700;7.306;2023-11-18T07:59:02;50.83;;;29.92;;
11187;SDS011;5650;52.700;7.306;2023-11-18T08:01:35;44.35;;;27.02;;
11187;SDS011;5650;52.700;7.306;2023-11-18T08:04:02;62.15;;;36.25;;
11187;SDS011;5650;52.700;7.306;2023-11-18T08:06:34;44.65;;;29.10;;
11187;SDS011;5650;52.700;7.306;2023-11-18T08:09:02;38.05;;;25.42;;
11187;SDS011;5650;52.700;7.306;2023-11-18T08:11:35;40.70;;;24.92;;
11187;SDS011;5650;52.700;7.306;2023-11-18T08:14:07;40.03;;;25.20;;
11187;SDS011;5650;52.700;7.306;2023-11-18T08:16:34;38.40;;;24.42;;
11187;SDS011;5650;52.700;7.306;2023-11-18T08:19:02;42.63;;;24.33;;
11187;SDS011;5650;52.700;7.306;2023-11-18T08:21:46;39.67;;;23.23;;
11187;SDS011;5650;52.700;7.306;2023-11-18T08:24:14;35.58;;;23.98;;
11187;SDS011;5650;52.700;7.306;2023-11-18T08:26:41;33.58;;;22.70;;
11187;SDS011;5650;52.700;7.306;2023-11-18T08:29:08;34.10;;;22.30;;
11187;SDS011;5650;52.700;7.306;2023-11-18T08:31:41;35.88;;;22.75;;
11187;SDS011;5650;52.700;7.306;2023-11-18T08:34:09;34.63;;;23.77;;
11187;SDS011;5650;52.700;7.306;2023-11-18T08:36:36;34.65;;;22.95;;
11187;SDS011;5650;52.700;7.306;2023-11-18T08:39:05;40.10;;;26.48;;
11187;SDS011;5650;52.700;7.306;2023-11-18T08:41:35;35.70;;;22.95;;
11187;SDS011;5650;52.700;7.306;2023-11-18T08:44:04;33.03;;;22.33;;
11187;SDS011;5650;52.700;7.306;2023-11-18T08:46:31;33.20;;;22.58;;
11187;SDS011;5650;52.700;7.306;2023-11-18T08:49:01;32.28;;;21.35;;
11187;SDS011;5650;52.700;7.306;2023-11-18T08:51:35;33.75;;;22.08;;
11187;SDS011;5650;52.700;7.306;2023-11-18T08:54:05;35.63;;;24.42;;
11187;SDS011;5650;52.700;7.306;2023-11-18T08:56:47;35.40;;;23.27;;
11187;SDS011;5650;52.700;7.306;2023-11-18T08:59:16;37.47;;;25.33;;
11187;SDS011;5650;52.700;7.306;2023-11-18T09:01:45;40.08;;;23.92;;
11187;SDS011;5650;52.700;7.306;2023-11-18T09:04:14;40.08;;;25.40;;
11187;SDS011;5650;52.700;7.306;2023-11-18T09:06:45;38.20;;;25.23;;
11187;SDS011;5650;52.700;7.306;2023-11-18T09:09:14;34.63;;;23.45;;
11187;SDS011;5650;52.700;7.306;2023-11-18T09:11:46;31.08;;;21.98;;
11187;SDS011;5650;52.700;7.306;2023-11-18T09:14:25;37.28;;;25.30;;
11187;SDS011;5650;52.700;7.306;2023-11-18T09:17:00;34.92;;;23.45;;
11187;SDS011;5650;52.700;7.306;2023-11-18T09:19:27;31.85;;;21.95;;
11187;SDS011;5650;52.700;7.306;2023-11-18T09:21:57;32.10;;;23.08;;
11187;SDS011;5650;52.700;7.306;2023-11-18T09:24:26;36.78;;;24.15;;
11187;SDS011;5650;52.700;7.306;2023-11-18T09:26:53;33.67;;;23.48;;
11187;SDS011;5650;52.700;7.306;2023-11-18T09:29:24;35.35;;;22.92;;
11187;SDS011;5650;52.700;7.306;2023-11-18T09:31:57;32.45;;;22.48;;
11187;SDS011;5650;52.700;7.306;2023-11-18T09:34:27;28.88;;;21.02;;
11187;SDS011;5650;52.700;7.306;2023-11-18T09:37:04;30.80;;;21.58;;
11187;SDS011;5650;52.700;7.306;2023-11-18T09:39:36;36.03;;;22.00;;
11187;SDS011;5650;52.700;7.306;2023-11-18T09:42:05;32.97;;;21.80;;
11187;SDS011;5650;52.700;7.306;2023-11-18T09:44:37;35.63;;;22.88;;
11187;SDS011;5650;52.700;7.306;2023-11-18T09:47:07;32.15;;;21.60;;
11187;SDS011;5650;52.700;7.306;2023-11-18T09:49:39;33.97;;;24.25;;
11187;SDS011;5650;52.700;7.306;2023-11-18T09:52:15;33.22;;;21.67;;
11187;SDS011;5650;52.700;7.306;2023-11-18T09:54:58;39.00;;;24.95;;
11187;SDS011;5650;52.700;7.306;2023-11-18T09:57:51;37.70;;;22.95;;
11187;SDS011;5650;52.700;7.306;2023-11-18T10:00:33;32.10;;;21.70;;
11187;SDS011;5650;52.700;7.306;2023-11-18T10:03:05;29.67;;;20.35;;
11187;SDS011;5650;52.700;7.306;2023-11-18T10:05:33;35.47;;;22.92;;
11187;SDS011;5650;52.700;7.306;2023-11-18T10:08:02;30.38;;;21.30;;
11187;SDS011;5650;52.700;7.306;2023-11-18T10:10:35;30.30;;;21.27;;
11187;SDS011;5650;52.700;7.306;2023-11-18T10:13:02;29.95;;;21.02;;
11187;SDS011;5650;52.700;7.306;2023-11-18T10:15:33;31.90;;;19.40;;
11187;SDS011;5650;52.700;7.306;2023-11-18T10:18:02;28.52;;;19.08;;
11187;SDS011;5650;52.700;7.306;2023-11-18T10:20:45;27.10;;;18.75;;
11187;SDS011;5650;52.700;7.306;2023-11-18T10:23:16;31.42;;;20.10;;
11187;SDS011;5650;52.700;7.306;2023-11-18T10:25:48;26.65;;;19.13;;
11187;SDS011;5650;52.700;7.306;2023-11-18T10:28:20;24.65;;;18.13;;
11187;SDS011;5650;52.700;7.306;2023-11-18T10:30:49;28.92;;;18.98;;
11187;SDS011;5650;52.700;7.306;2023-11-18T10:33:16;24.30;;;17.95;;
11187;SDS011;5650;52.700;7.306;2023-11-18T10:35:53;29.60;;;18.52;;
11187;SDS011;5650;52.700;7.306;2023-11-18T10:38:24;28.08;;;19.75;;
11187;SDS011;5650;52.700;7.306;2023-11-18T10:41:05;29.65;;;18.83;;
11187;SDS011;5650;52.700;7.306;2023-11-18T10:43:35;26.58;;;18.35;;
11187;SDS011;5650;52.700;7.306;2023-11-18T10:46:04;27.73;;;18.80;;
11187;SDS011;5650;52.700;7.306;2023-11-18T10:48:41;24.92;;;18.40;;
11187;SDS011;5650;52.700;7.306;2023-11-18T10:51:13;26.92;;;20.20;;
11187;SDS011;5650;52.700;7.306;2023-11-18T10:53:46;41.00;;;24.50;;
11187;SDS011;5650;52.700;7.306;2023-11-18T10:56:25;39.13;;;26.70;;
11187;SDS011;5650;52.700;7.306;2023-11-18T10:58:57;34.28;;;23.20;;
11187;SDS011;5650;52.700;7.306;2023-11-18T11:01:32;32.65;;;23.17;;
11187;SDS011;5650;52.700;7.306;2023-11-18T11:04:06;35.72;;;24.58;;
11187;SDS011;5650;52.700;7.306;2023-11-18T11:06:35;30.80;;;19.58;;
11187;SDS011;5650;52.700;7.306;2023-11-18T11:09:08;29.88;;;19.25;;
11187;SDS011;5650;52.700;7.306;2023-11-18T11:11:45;27.98;;;19.05;;
11187;SDS011;5650;52.700;7.306;2023-11-18T11:14:14;28.23;;;18.98;;
11187;SDS011;5650;52.700;7.306;2023-11-18T11:16:47;27.40;;;20.17;;
11187;SDS011;5650;52.700;7.306;2023-11-18T11:19:29;29.35;;;21.45;;
11187;SDS011;5650;52.700;7.306;2023-11-18T11:22:14;28.90;;;19.27;;
11187;SDS011;5650;52.700;7.306;2023-11-18T11:24:58;134.43;;;25.48;;
11187;SDS011;5650;52.700;7.306;2023-11-18T11:27:38;39.95;;;28.23;;
11187;SDS011;5650;52.700;7.306;2023-11-18T11:30:22;29.02;;;20.35;;
11187;SDS011;5650;52.700;7.306;2023-11-18T11:32:59;30.63;;;20.67;;
11187;SDS011;5650;52.700;7.306;2023-11-18T11:35:31;24.63;;;17.70;;
11187;SDS011;5650;52.700;7.306;2023-11-18T11:38:09;26.83;;;18.63;;
11187;SDS011;5650;52.700;7.306;2023-11-18T11:40:39;23.80;;;17.02;;
11187;SDS011;5650;52.700;7.306;2023-11-18T11:43:12;25.75;;;17.40;;
11187;SDS011;5650;52.700;7.306;2023-11-18T11:45:46;54.03;;;21.27;;
11187;SDS011;5650;52.700;7.306;2023-11-18T11:48:17;29.17;;;17.23;;
11187;SDS011;5650;52.700;7.306;2023-11-18T11:51:05;25.95;;;17.63;;
11187;SDS011;5650;52.700;7.306;2023-11-18T11:53:42;84.40;;;21.52;;
11187;SDS011;5650;52.700;7.306;2023-11-18T11:56:16;26.42;;;18.55;;
11187;SDS011;5650;52.700;7.306;2023-11-18T11:58:53;26.05;;;16.80;;
11187;SDS011;5650;52.700;7.306;2023-11-18T12:01:25;25.83;;;16.92;;
11187;SDS011;5650;52.700;7.306;2023-11-18T12:04:09;22.02;;;17.00;;
11187;SDS011;5650;52.700;7.306;2023-11-18T12:06:46;23.80;;;16.10;;
11187;SDS011;5650;52.700;7.306;2023-11-18T12:09:18;24.40;;;17.35;;
11187;SDS011;5650;52.700;7.306;2023-11-18T12:11:46;28.35;;;18.98;;
11187;SDS011;5650;52.700;7.306;2023-11-18T12:14:17;27.15;;;16.65;;
11187;SDS011;5650;52.700;7.306;2023-11-18T12:17:01;25.70;;;17.80;;
11187;SDS011;5650;52.700;7.306;2023-11-18T12:19:35;21.42;;;15.55;;
11187;SDS011;5650;52.700;7.306;2023-11-18T12:22:10;27.83;;;17.05;;
11187;SDS011;5650;52.700;7.306;2023-11-18T12:28:11;25.98;;;17.73;;
11187;SDS011;5650;52.700;7.306;2023-11-18T12:30:45;25.60;;;17.00;;
11187;SDS011;5650;52.700;7.306;2023-11-18T12:33:21;26.52;;;16.75;;
11187;SDS011;5650;52.700;7.306;2023-11-18T12:36:13;25.38;;;19.30;;
11187;SDS011;5650;52.700;7.306;2023-11-18T12:43:01;27.67;;;17.25;;
11187;SDS011;5650;52.700;7.306;2023-11-18T12:48:44;25.77;;;18.27;;
11187;SDS011;5650;52.700;7.306;2023-11-18T12:51:16;25.00;;;17.25;;
11187;SDS011;5650;52.700;7.306;2023-11-18T12:53:47;24.30;;;17.25;;
11187;SDS011;5650;52.700;7.306;2023-11-18T12:56:16;24.80;;;17.70;;
11187;SDS011;5650;52.700;7.306;2023-11-18T12:58:50;25.52;;;16.92;;
11187;SDS011;5650;52.700;7.306;2023-11-18T13:01:19;22.50;;;15.07;;
11187;SDS011;5650;52.700;7.306;2023-11-18T13:03:51;24.45;;;17.10;;
11187;SDS011;5650;52.700;7.306;2023-11-18T13:06:18;33.47;;;20.15;;
11187;SDS011;5650;52.700;7.306;2023-11-18T13:08:47;25.80;;;16.00;;
11187;SDS011;5650;52.700;7.306;2023-11-18T13:11:16;23.60;;;17.20;;
11187;SDS011;5650;52.700;7.306;2023-11-18T13:13:46;23.15;;;16.73;;
11187;SDS011;5650;52.700;7.306;2023-11-18T13:16:14;25.70;;;15.55;;
11187;SDS011;5650;52.700;7.306;2023-11-18T13:18:43;20.95;;;15.90;;
11187;SDS011;5650;52.700;7.306;2023-11-18T13:21:19;22.35;;;15.82;;
11187;SDS011;5650;52.700;7.306;2023-11-18T13:23:57;20.50;;;14.85;;
11187;SDS011;5650;52.700;7.306;2023-11-18T13:26:24;23.30;;;16.02;;
11187;SDS011;5650;52.700;7.306;2023-11-18T13:28:54;24.83;;;17.10;;
11187;SDS011;5650;52.700;7.306;2023-11-18T13:31:26;28.15;;;16.63;;
11187;SDS011;5650;52.700;7.306;2023-11-18T13:33:56;24.73;;;16.60;;
11187;SDS011;5650;52.700;7.306;2023-11-18T13:36:27;28.83;;;16.98;;
11187;SDS011;5650;52.700;7.306;2023-11-18T13:38:55;23.73;;;16.83;;
11187;SDS011;5650;52.700;7.306;2023-11-18T13:41:29;24.02;;;15.68;;
11187;SDS011;5650;52.700;7.306;2023-11-18T13:44:01;27.90;;;18.40;;
11187;SDS011;5650;52.700;7.306;2023-11-18T13:46:29;27.98;;;18.35;;
11187;SDS011;5650;52.700;7.306;2023-11-18T13:48:57;28.05;;;18.45;;
11187;SDS011;5650;52.700;7.306;2023-11-18T13:51:29;24.85;;;16.00;;
11187;SDS011;5650;52.700;7.306;2023-11-18T13:53:58;25.10;;;17.17;;
11187;SDS011;5650;52.700;7.306;2023-11-18T13:56:26;26.13;;;16.88;;
11187;SDS011;5650;52.700;7.306;2023-11-18T13:58:57;24.17;;;15.38;;
11187;SDS011;5650;52.700;7.306;2023-11-18T14:01:28;26.70;;;16.08;;
11187;SDS011;5650;52.700;7.306;2023-11-18T14:03:55;26.50;;;17.20;;
11187;SDS011;5650;52.700;7.306;2023-11-18T14:06:35;26.40;;;17.23;;
11187;SDS011;5650;52.700;7.306;2023-11-18T14:09:02;22.52;;;16.05;;
11187;SDS011;5650;52.700;7.306;2023-11-18T14:11:30;27.88;;;18.15;;
11187;SDS011;5650;52.700;7.306;2023-11-18T14:13:59;26.38;;;17.27;;
11187;SDS011;5650;52.700;7.306;2023-11-18T14:16:29;32.63;;;19.38;;
11187;SDS011;5650;52.700;7.306;2023-11-18T14:18:56;25.50;;;17.63;;
11187;SDS011;5650;52.700;7.306;2023-11-18T14:21:28;25.48;;;16.70;;
11187;SDS011;5650;52.700;7.306;2023-11-18T14:23:56;22.33;;;16.95;;
11187;SDS011;5650;52.700;7.306;2023-11-18T14:26:27;26.17;;;17.23;;
11187;SDS011;5650;52.700;7.306;2023-11-18T14:28:58;22.92;;;16.33;;
11187;SDS011;5650;52.700;7.306;2023-11-18T14:31:25;23.30;;;14.95;;
11187;SDS011;5650;52.700;7.306;2023-11-18T14:33:53;19.85;;;14.85;;
11187;SDS011;5650;52.700;7.306;2023-11-18T14:36:24;19.50;;;14.60;;
11187;SDS011;5650;52.700;7.306;2023-11-18T14:39:04;23.42;;;16.25;;
11187;SDS011;5650;52.700;7.306;2023-11-18T14:41:35;24.05;;;14.52;;
11187;SDS011;5650;52.700;7.306;2023-11-18T14:44:02;19.13;;;14.18;;
11187;SDS011;5650;52.700;7.306;2023-11-18T14:46:32;22.05;;;14.05;;
11187;SDS011;5650;52.700;7.306;2023-11-18T14:49:00;24.58;;;14.52;;
11187;SDS011;5650;52.700;7.306;2023-11-18T14:51:35;17.98;;;13.50;;
11187;SDS011;5650;52.700;7.306;2023-11-18T14:54:07;22.13;;;14.60;;
11187;SDS011;5650;52.700;7.306;2023-11-18T14:56:41;21.98;;;14.43;;
11187;SDS011;5650;52.700;7.306;2023-11-18T14:59:08;22.90;;;14.60;;
11187;SDS011;5650;52.700;7.306;2023-11-18T15:01:37;21.67;;;15.45;;
11187;SDS011;5650;52.700;7.306;2023-11-18T15:04:09;20.90;;;15.00;;
11187;SDS011;5650;52.700;7.306;2023-11-18T15:06:39;22.33;;;15.15;;
11187;SDS011;5650;52.700;7.306;2023-11-18T15:09:08;24.92;;;14.88;;
11187;SDS011;5650;52.700;7.306;2023-11-18T15:11:36;22.35;;;14.63;;
11187;SDS011;5650;52.700;7.306;2023-11-18T15:14:03;20.10;;;14.02;;
11187;SDS011;5650;52.700;7.306;2023-11-18T15:16:35;22.05;;;14.10;;